Boeing Field King County International Airport
KBFI : now visible

Airfield :











YOU CAN JOIN US ON...

 
LOGIN :

Register | Disclaimer

   EN    FR    IT 

 









Legend :    VFR   Marginal VFR   IFR   Intensive IFR   Very Intensive IFR
Visi :
Ceiling :
>= 8 km
>= 3000ft
5 to 8 km
1000 to 3000 ft
1500m to 5 km
500 to 1000 ft
800 to 1500m
200 to 500 ft
< 800m
< 200 ft
Symbols :   Thunderstorms  Fog  Heavy snow  Heavy precipitations  Wind > 20 kt







- Airport Elevation : 21 ft
- IATA code : BFI


KBFI - Boeing Field King County International

CURRENT METAR :
  • 210453Z 06008KT 10SM OVC065 11/08 A2975 RMK AO2 RAB0357E53 SLP073 P0000 T01110083

EXPIRED METARs :
  • 210353Z 07004KT 10SM FEW030 BKN065 OVC080 12/08 A2976 RMK AO2 SLP076 T01170083
  • 210253Z 07003KT 10SM FEW035 BKN070 OVC090 12/09 A2976 RMK AO2 RAE51 SLP077 P0000 60000 T01220089 56009

TAF KBFI
Valid from the 21 at 04:00 until the 22 at 00:00 UTC


210357Z 2104/2124 07004KT P6SM VCSH FEW030 BKN070 OVC080
FM210600 04004KT P6SM VCSH OVC030
FM211200 02005KT P6SM VCSH OVC022
FM211800 33005KT P6SM SCT030 BKN040
KZSE FIR / North America



MET'MAP, your aeronautical weather chart ! - Copyright ORBIFLY December 2007 - Disclaimer

ORBIFLY MET'MAP TEAM :

Programming & Development : Alexandra Zaïnal
Concept & Development : Baudouin d'Aumeries
Co-Development & Prog : Marc-Olivier Méhu
Technical & hardware support : Manuel Goepfert

Contact : metmap@orbifly.com




SOURCES & CREDITS :

   NOAA       Earth
Advisory